Time;durP1;ratioP1;P1;durP2;ratioP2;P2;SDS_P1;SDS_P2;PMS_P1;PMS_P2;Temp;Humidity;BMP_temperature;BMP_pressure;BME280_temperature;BME280_humidity;BME280_pressure;Samples;Min_cycle;Max_cycle;Signal;HPM_P1;HPM_P2
2023/07/16 06:45:00;;;;;;;4.00;2.30;;;;;;;34.10;41.56;101039.45;105996;1259;61329;-88
2023/07/16 06:47:48;;;;;;;4.80;2.60;;;;;;;34.09;41.80;101039.79;105878;1259;61059;-91
2023/07/16 06:50:36;;;;;;;4.80;2.50;;;;;;;34.08;42.09;101040.36;105821;1260;66120;-89
2023/07/16 06:53:25;;;;;;;4.30;2.70;;;;;;;34.13;43.43;101040.63;105969;1261;61629;-89
2023/07/16 06:56:13;;;;;;;4.00;2.40;;;;;;;34.17;43.36;101040.45;105834;1260;65032;-91
2023/07/16 06:59:02;;;;;;;3.90;2.30;;;;;;;34.15;42.85;101038.48;106078;1259;61249;-92
2023/07/16 07:01:51;;;;;;;6.60;2.70;;;;;;;34.14;42.78;101035.60;105900;1264;61262;-88
2023/07/16 07:04:39;;;;;;;3.70;2.20;;;;;;;34.15;42.86;101036.93;106064;1259;67024;-92
2023/07/16 07:07:28;;;;;;;3.10;2.40;;;;;;;34.08;41.36;101033.79;105960;1260;61858;-92
2023/07/16 07:10:16;;;;;;;4.50;2.60;;;;;;;33.91;42.05;101037.25;105968;1261;73740;-93
2023/07/16 07:13:04;;;;;;;3.60;2.40;;;;;;;34.03;43.41;101036.84;105973;1259;61295;-91
2023/07/16 07:15:52;;;;;;;4.30;2.00;;;;;;;34.26;44.04;101038.39;105987;1258;61287;-88
2023/07/16 07:18:41;;;;;;;2.60;1.90;;;;;;;34.49;42.87;101044.52;105908;1261;66153;-92
2023/07/16 07:22:01;;;;;;;5.30;1.90;;;;;;;34.68;41.48;101043.32;105978;1256;61283;-91
2023/07/16 07:24:49;;;;;;;3.70;2.10;;;;;;;34.85;39.91;101043.20;106071;1257;65327;-92
2023/07/16 07:27:37;;;;;;;3.40;2.10;;;;;;;34.99;38.91;101045.05;106042;1258;61428;-89
2023/07/16 07:30:26;;;;;;;2.80;1.80;;;;;;;35.12;37.70;101044.50;106200;1257;61251;-91
2023/07/16 07:33:14;;;;;;;6.10;2.20;;;;;;;35.20;36.75;101041.83;106110;1257;65871;-87
2023/07/16 07:36:03;;;;;;;3.20;2.10;;;;;;;35.33;36.51;101038.58;106206;1260;61264;-91
2023/07/16 07:38:51;;;;;;;2.10;1.90;;;;;;;35.52;35.91;101038.17;106141;1258;63790;-88
2023/07/16 07:41:39;;;;;;;2.00;1.80;;;;;;;35.56;35.38;101038.67;106196;1256;61183;-88
2023/07/16 07:44:27;;;;;;;3.80;2.10;;;;;;;35.55;35.94;101032.76;106097;1257;61187;-88
2023/07/16 07:47:15;;;;;;;3.60;1.70;;;;;;;35.55;35.45;101031.05;105987;1258;66047;-86
2023/07/16 07:50:04;;;;;;;2.70;1.90;;;;;;;35.59;34.91;101025.80;106233;1257;61238;-92
2023/07/16 07:52:53;;;;;;;4.20;1.90;;;;;;;35.61;34.48;101024.39;106174;1263;64993;-92
2023/07/16 07:55:41;;;;;;;2.00;1.50;;;;;;;35.67;34.69;101027.67;106142;1260;61244;-91
2023/07/16 07:58:29;;;;;;;3.90;1.80;;;;;;;35.78;32.50;101025.80;106180;1258;61208;-92
2023/07/16 08:01:19;;;;;;;3.10;1.80;;;;;;;36.01;33.08;101027.55;105853;1262;66033;-90
2023/07/16 08:04:11;;;;;;;3.10;1.80;;;;;;;36.10;33.48;101026.06;105999;1258;61400;-89
2023/07/16 08:06:59;;;;;;;2.40;2.20;;;;;;;36.05;33.21;101023.49;105865;1256;63864;-89
2023/07/16 08:09:48;;;;;;;2.40;1.80;;;;;;;35.90;33.42;101022.69;105735;1256;61362;-91
2023/07/16 08:12:37;;;;;;;6.30;2.00;;;;;;;35.91;33.03;101019.59;105924;1261;61189;-89
2023/07/16 08:15:26;;;;;;;3.20;1.90;;;;;;;36.05;32.32;101017.95;106012;1257;66894;-89
2023/07/16 08:18:16;;;;;;;2.00;1.60;;;;;;;36.22;32.44;101014.64;106089;1256;61747;-91
2023/07/16 08:21:04;;;;;;;3.80;1.70;;;;;;;36.39;32.38;101013.10;105968;1257;65074;-92
2023/07/16 08:23:52;;;;;;;2.40;1.70;;;;;;;36.55;30.54;101018.73;106092;1257;61216;-90
2023/07/16 08:26:41;;;;;;;4.20;1.90;;;;;;;36.64;29.87;101013.40;106135;1260;61194;-88
2023/07/16 08:29:29;;;;;;;2.00;1.60;;;;;;;36.75;31.39;101012.75;105986;1257;67104;-88
2023/07/16 08:32:18;;;;;;;3.70;1.70;;;;;;;36.68;28.67;101008.95;106111;1257;61269;-88
2023/07/16 08:35:06;;;;;;;1.60;1.50;;;;;;;36.44;27.68;101008.92;106138;1257;63823;-92
2023/07/16 08:37:55;;;;;;;2.30;1.90;;;;;;;36.23;28.94;101006.41;106028;1257;61134;-89
2023/07/16 08:40:43;;;;;;;1.90;1.50;;;;;;;36.11;29.71;101004.59;106161;1256;61264;-91
2023/07/16 08:43:33;;;;;;;4.20;1.60;;;;;;;36.26;28.79;101008.55;105937;1257;67274;-91
2023/07/16 08:46:21;;;;;;;5.00;2.10;;;;;;;36.42;28.41;101006.67;106055;1256;61267;-89
2023/07/16 08:49:09;;;;;;;2.40;1.50;;;;;;;36.49;28.72;101005.63;106024;1257;63722;-87
2023/07/16 08:51:57;;;;;;;2.80;1.50;;;;;;;36.56;29.01;101008.27;105978;1257;61233;-88
2023/07/16 08:54:45;;;;;;;2.50;1.70;;;;;;;36.80;27.30;101007.42;105966;1257;61336;-90
2023/07/16 08:57:34;;;;;;;3.30;1.60;;;;;;;37.06;26.73;101008.54;106229;1256;67836;-91
2023/07/16 09:00:25;;;;;;;2.20;1.20;;;;;;;37.26;27.25;101007.73;106005;1260;61224;-91
2023/07/16 09:03:18;;;;;;;2.40;1.60;;;;;;;37.46;26.72;101009.83;106000;1257;65260;-90
2023/07/16 09:06:07;;;;;;;3.50;1.50;;;;;;;37.53;26.62;101010.04;105979;1257;61297;-93
2023/07/16 09:08:55;;;;;;;1.90;1.40;;;;;;;37.51;25.90;101013.27;105975;1257;61357;-88
2023/07/16 09:11:48;;;;;;;3.70;1.90;;;;;;;37.64;26.41;101009.73;105937;1256;64727;-92
2023/07/16 09:14:41;;;;;;;5.90;2.10;;;;;;;37.80;26.12;101005.23;106482;1261;60098;-88
2023/07/16 09:17:29;;;;;;;3.60;1.80;;;;;;;38.07;26.36;101003.09;106032;1256;62673;-89
2023/07/16 09:20:18;;;;;;;3.40;1.90;;;;;;;38.21;26.12;101002.73;106040;1256;61352;-88
2023/07/16 09:23:06;;;;;;;4.30;1.40;;;;;;;38.19;26.64;101004.77;106015;1256;61480;-88
2023/07/16 09:25:54;;;;;;;2.40;1.70;;;;;;;38.24;25.30;101004.93;106198;1257;67090;-89
2023/07/16 09:28:43;;;;;;;4.10;1.80;;;;;;;38.38;24.31;101005.85;106188;1257;61366;-89
2023/07/16 09:31:31;;;;;;;2.00;1.60;;;;;;;38.31;24.28;101007.96;106107;1259;65564;-90
2023/07/16 09:34:20;;;;;;;3.10;1.40;;;;;;;38.35;24.77;101006.34;105923;1264;61375;-87
2023/07/16 09:37:07;;;;;;;2.20;1.50;;;;;;;38.29;25.36;101011.36;106131;1257;61347;-87
2023/07/16 09:39:56;;;;;;;3.60;1.50;;;;;;;38.00;25.36;101011.95;106046;1258;67193;-87
2023/07/16 09:42:45;;;;;;;2.10;1.50;;;;;;;37.71;25.68;101007.48;105918;1261;61239;-88
2023/07/16 09:45:35;;;;;;;2.60;1.60;;;;;;;37.70;26.55;101004.56;105875;1263;65116;-88
2023/07/16 09:48:23;;;;;;;4.60;1.40;;;;;;;37.84;25.66;101002.02;105924;1258;61337;-87
2023/07/16 09:51:12;;;;;;;2.00;1.30;;;;;;;37.73;25.58;101001.52;105927;1261;59324;-88
2023/07/16 09:54:04;;;;;;;2.40;1.50;;;;;;;37.77;25.42;100991.65;105906;1263;66870;-88
2023/07/16 09:56:55;;;;;;;3.50;1.70;;;;;;;38.06;24.68;100993.17;105930;1257;61193;-88
2023/07/16 09:59:43;;;;;;;1.70;1.40;;;;;;;38.08;24.16;100994.17;106005;1256;63954;-88
2023/07/16 10:02:35;;;;;;;2.70;1.50;;;;;;;38.04;24.39;100985.50;106006;1256;61251;-89
2023/07/16 10:05:28;;;;;;;2.90;1.60;;;;;;;38.15;24.08;100983.05;106073;1258;61382;-87
2023/07/16 10:08:18;;;;;;;3.20;1.40;;;;;;;38.06;24.79;100978.19;106015;1259;67013;-88
2023/07/16 10:11:16;;;;;;;1.80;1.70;;;;;;;37.91;25.33;100972.94;106096;1256;61243;-88
2023/07/16 10:14:04;;;;;;;3.60;1.80;;;;;;;37.71;25.08;100972.19;105937;1257;64947;-87
2023/07/16 10:16:54;;;;;;;3.90;1.70;;;;;;;37.66;25.74;100972.49;106107;1256;61174;-87
2023/07/16 10:19:58;;;;;;;2.80;1.80;;;;;;;37.73;25.10;100974.84;106071;1256;61366;-88
2023/07/16 10:22:47;;;;;;;3.10;1.80;;;;;;;37.90;25.54;100975.27;105973;1258;66944;-88
2023/07/16 10:25:36;;;;;;;4.80;1.60;;;;;;;37.94;24.61;100967.00;106010;1260;61308;-89
2023/07/16 10:28:24;;;;;;;3.20;1.80;;;;;;;37.98;25.10;100965.07;106014;1257;65165;-89
2023/07/16 10:31:25;;;;;;;8.40;1.70;;;;;;;37.84;25.21;100966.17;106068;1260;61353;-88
2023/07/16 10:34:14;;;;;;;2.50;1.70;;;;;;;37.76;25.11;100964.80;106049;1261;61187;-88
2023/07/16 10:37:03;;;;;;;3.40;1.80;;;;;;;37.89;24.58;100962.76;106030;1256;67208;-89
2023/07/16 10:39:54;;;;;;;2.30;1.50;;;;;;;37.94;24.48;100963.15;105979;1256;61404;-87
2023/07/16 10:42:46;;;;;;;2.50;1.70;;;;;;;38.05;25.08;100958.85;106058;1260;62611;-87
2023/07/16 10:45:34;;;;;;;3.60;1.60;;;;;;;38.22;24.86;100956.71;106086;1257;61319;-88
2023/07/16 10:48:26;;;;;;;2.50;1.50;;;;;;;38.21;25.01;100960.20;106080;1256;61251;-87
2023/07/16 10:51:15;;;;;;;4.30;1.90;;;;;;;38.16;25.25;100960.75;106095;1256;67010;-88
2023/07/16 10:54:05;;;;;;;4.60;2.00;;;;;;;38.27;25.62;100957.79;106095;1256;61359;-88
2023/07/16 10:56:53;;;;;;;2.40;1.40;;;;;;;38.54;24.00;100954.90;105940;1259;63900;-87
2023/07/16 10:59:41;;;;;;;2.90;1.40;;;;;;;38.76;24.72;100954.37;105914;1260;61337;-88
2023/07/16 11:02:30;;;;;;;3.90;2.00;;;;;;;38.88;24.81;100955.32;105981;1261;61251;-88
2023/07/16 11:05:21;;;;;;;6.60;1.80;;;;;;;38.70;24.37;100955.64;106188;1260;66900;-90
2023/07/16 11:08:09;;;;;;;6.50;1.60;;;;;;;38.66;24.19;100957.89;106019;1256;61326;-88
2023/07/16 11:10:57;;;;;;;3.40;1.60;;;;;;;38.37;24.22;100954.91;106122;1256;65908;-89
2023/07/16 11:13:46;;;;;;;2.30;1.40;;;;;;;38.24;24.99;100956.15;106238;1256;61242;-89
2023/07/16 11:16:37;;;;;;;6.50;2.00;;;;;;;38.47;24.35;100955.39;106049;1256;59633;-88
2023/07/16 11:19:29;;;;;;;4.00;1.40;;;;;;;38.85;23.91;100950.38;106186;1257;67014;-93
2023/07/16 11:22:18;;;;;;;6.20;1.50;;;;;;;39.09;24.41;100951.21;106200;1257;61207;-89
2023/07/16 11:25:13;;;;;;;6.80;1.60;;;;;;;39.13;23.27;100950.35;106081;1257;64047;-88
2023/07/16 11:28:01;;;;;;;3.40;2.00;;;;;;;39.37;22.48;100950.90;106045;1256;61707;-90
2023/07/16 11:30:49;;;;;;;3.60;1.60;;;;;;;39.73;21.41;100954.14;106217;1256;61359;-89
2023/07/16 11:33:44;;;;;;;2.60;1.70;;;;;;;40.01;21.26;100957.30;106003;1261;65972;-90
2023/07/16 11:36:33;;;;;;;3.20;1.90;;;;;;;40.24;21.32;100960.34;106046;1256;61288;-89
2023/07/16 11:39:24;;;;;;;1.90;1.60;;;;;;;40.61;20.98;100956.56;106180;1259;74387;-90
2023/07/16 11:42:12;;;;;;;1.80;1.50;;;;;;;40.77;20.67;100956.77;106064;1256;61315;-89
2023/07/16 11:45:00;;;;;;;3.20;1.50;;;;;;;40.73;20.35;100956.86;106130;1259;61107;-88
2023/07/16 11:47:49;;;;;;;1.90;1.50;;;;;;;40.78;20.42;100951.27;106084;1256;66856;-91
2023/07/16 11:50:38;;;;;;;3.70;1.60;;;;;;;40.80;20.79;100947.31;106102;1256;61227;-89
2023/07/16 11:53:26;;;;;;;1.90;1.70;;;;;;;40.85;20.47;100946.66;105982;1256;72677;-90
2023/07/16 11:56:14;;;;;;;3.60;1.70;;;;;;;41.04;20.58;100947.36;105943;1260;61319;-89
2023/07/16 11:59:03;;;;;;;3.90;1.50;;;;;;;41.01;20.49;100947.07;106063;1256;61049;-89
2023/07/16 12:01:52;;;;;;;1.70;1.20;;;;;;;40.95;19.64;100944.55;106257;1256;67064;-90
2023/07/16 12:04:42;;;;;;;3.20;1.60;;;;;;;41.11;20.22;100944.92;106049;1261;61193;-89
2023/07/16 12:07:35;;;;;;;3.60;2.00;;;;;;;41.12;19.70;100944.90;106053;1257;63949;-90
2023/07/16 12:10:23;;;;;;;6.90;1.60;;;;;;;41.02;19.64;100939.73;105994;1257;61151;-89
2023/07/16 12:13:12;;;;;;;3.60;1.60;;;;;;;40.86;20.17;100943.10;106192;1256;61799;-90
2023/07/16 12:16:00;;;;;;;2.10;1.40;;;;;;;40.47;20.24;100941.14;106050;1257;67118;-90
2023/07/16 12:18:48;;;;;;;3.40;1.80;;;;;;;40.00;20.90;100933.52;106142;1256;61898;-89
2023/07/16 12:21:36;;;;;;;2.60;1.50;;;;;;;39.77;21.76;100929.80;106101;1256;62698;-90
2023/07/16 12:24:25;;;;;;;2.80;1.60;;;;;;;39.60;22.15;100928.48;106053;1260;61381;-91
2023/07/16 12:27:14;;;;;;;3.50;1.60;;;;;;;39.41;22.38;100927.00;106238;1256;61343;-90
2023/07/16 12:30:02;;;;;;;2.50;1.40;;;;;;;39.30;22.76;100927.88;105981;1257;65791;-89
2023/07/16 12:32:51;;;;;;;5.20;1.70;;;;;;;39.34;22.18;100929.23;106044;1257;61341;-89
2023/07/16 12:35:39;;;;;;;3.00;1.80;;;;;;;39.38;21.89;100920.84;106128;1256;63721;-90
2023/07/16 12:38:28;;;;;;;3.70;1.90;;;;;;;39.67;21.70;100919.77;105990;1257;61401;-91
2023/07/16 12:41:16;;;;;;;3.90;1.40;;;;;;;39.98;21.44;100920.70;105981;1260;61226;-90
2023/07/16 12:44:04;;;;;;;3.20;1.60;;;;;;;40.47;21.12;100918.80;106067;1260;67113;-90
2023/07/16 12:46:53;;;;;;;2.20;1.70;;;;;;;40.80;21.14;100917.03;106297;1259;61428;-91
2023/07/16 12:49:41;;;;;;;3.40;1.70;;;;;;;41.03;21.36;100920.89;106079;1256;65929;-92
2023/07/16 12:52:30;;;;;;;3.00;1.70;;;;;;;41.28;21.07;100916.36;106073;1256;61288;-90
2023/07/16 12:55:19;;;;;;;2.10;1.80;;;;;;;41.39;20.54;100913.65;106447;1258;60399;-90
2023/07/16 12:58:06;;;;;;;1.80;1.60;;;;;;;41.55;20.69;100910.84;106007;1261;65825;-91
2023/07/16 13:00:55;;;;;;;2.80;1.60;;;;;;;41.66;20.53;100911.84;105883;1262;61264;-90
2023/07/16 13:03:44;;;;;;;3.20;1.80;;;;;;;41.73;20.27;100912.64;105906;1256;66078;-91
2023/07/16 13:06:33;;;;;;;3.50;1.60;;;;;;;41.92;20.57;100909.42;106296;1256;61294;-90
2023/07/16 13:09:22;;;;;;;2.80;1.50;;;;;;;42.10;20.33;100909.93;106014;1256;61216;-91
2023/07/16 13:12:11;;;;;;;2.80;1.80;;;;;;;42.46;20.07;100906.92;106295;1256;66925;-91
2023/07/16 13:14:59;;;;;;;2.80;1.60;;;;;;;42.83;19.15;100904.55;105963;1256;61830;-90
2023/07/16 13:17:48;;;;;;;4.10;2.00;;;;;;;42.82;19.23;100905.52;106043;1257;63736;-91
2023/07/16 13:20:37;;;;;;;2.00;1.80;;;;;;;42.40;19.77;100906.17;106123;1256;61215;-90
2023/07/16 13:23:25;;;;;;;3.30;1.80;;;;;;;42.08;19.73;100901.80;106647;1260;61191;-89
2023/07/16 13:26:13;;;;;;;2.60;1.50;;;;;;;41.71;20.18;100899.84;105969;1256;67180;-89
2023/07/16 13:29:02;;;;;;;3.10;1.70;;;;;;;41.58;20.69;100899.34;105929;1260;61438;-89
2023/07/16 13:31:50;;;;;;;4.40;2.10;;;;;;;41.61;20.48;100899.23;106052;1256;66052;-90
2023/07/16 13:34:39;;;;;;;4.50;1.80;;;;;;;41.87;20.73;100897.36;105992;1257;61240;-91
2023/07/16 13:37:27;;;;;;;2.30;1.90;;;;;;;42.25;20.73;100901.33;105936;1256;61446;-88
2023/07/16 13:40:16;;;;;;;3.00;1.60;;;;;;;42.39;20.30;100903.84;106188;1256;64788;-91
2023/07/16 13:43:05;;;;;;;2.40;2.10;;;;;;;42.75;19.51;100901.69;106003;1256;61226;-89
2023/07/16 13:45:53;;;;;;;5.60;2.80;;;;;;;42.98;19.15;100901.21;106312;1256;64970;-88
2023/07/16 13:48:41;;;;;;;4.70;3.30;;;;;;;42.96;19.70;100899.56;105981;1257;61288;-89
2023/07/16 13:51:46;;;;;;;10.10;2.20;;;;;;;42.85;19.80;100900.58;106006;1256;61124;-92
2023/07/16 13:54:35;;;;;;;2.80;1.60;;;;;;;42.84;19.41;100902.16;106089;1260;66880;-91
2023/07/16 13:57:25;;;;;;;2.10;1.50;;;;;;;42.75;18.93;100898.22;106143;1260;61269;-92
2023/07/16 14:00:15;;;;;;;3.00;1.80;;;;;;;42.76;19.54;100895.16;106005;1256;64248;-90
2023/07/16 14:03:03;;;;;;;4.40;1.60;;;;;;;42.56;20.12;100892.00;106034;1256;61232;-88
2023/07/16 14:05:51;;;;;;;2.60;2.40;;;;;;;42.44;20.20;100890.24;105885;1257;61357;-89
2023/07/16 14:08:39;;;;;;;1.70;1.60;;;;;;;42.07;20.36;100892.70;105887;1259;66634;-91
2023/07/16 14:11:27;;;;;;;3.30;1.80;;;;;;;41.96;20.38;100890.11;106025;1257;61244;-88
2023/07/16 14:14:16;;;;;;;2.60;1.90;;;;;;;42.22;20.67;100887.59;106029;1256;63869;-90
2023/07/16 14:17:04;;;;;;;3.00;1.50;;;;;;;42.81;20.38;100887.52;106245;1256;61270;-90
2023/07/16 14:19:53;;;;;;;3.90;1.60;;;;;;;43.09;19.57;100884.27;106214;1261;61173;-89
2023/07/16 14:22:41;;;;;;;2.30;1.80;;;;;;;43.08;19.11;100883.89;105994;1256;67119;-88
2023/07/16 14:25:30;;;;;;;2.10;1.70;;;;;;;42.72;20.06;100879.27;106006;1260;61375;-91
2023/07/16 14:28:18;;;;;;;4.90;2.00;;;;;;;42.31;20.81;100878.33;105998;1256;64045;-88
2023/07/16 14:31:06;;;;;;;3.80;2.00;;;;;;;42.22;20.75;100877.09;106237;1256;61299;-91
2023/07/16 14:33:54;;;;;;;2.10;1.70;;;;;;;42.53;20.09;100872.02;106083;1261;61261;-88
2023/07/16 14:36:44;;;;;;;2.80;1.90;;;;;;;42.49;20.03;100865.80;106012;1261;66955;-89
2023/07/16 14:39:33;;;;;;;2.40;1.80;;;;;;;42.43;19.79;100863.66;106302;1256;61229;-91
2023/07/16 14:42:22;;;;;;;3.80;2.00;;;;;;;42.46;20.00;100862.36;106012;1258;65006;-91
2023/07/16 14:45:10;;;;;;;3.10;1.60;;;;;;;42.49;20.38;100863.45;105997;1256;61294;-90
2023/07/16 14:47:59;;;;;;;2.20;1.80;;;;;;;42.17;20.58;100862.17;106156;1257;61180;-91
2023/07/16 14:50:49;;;;;;;2.00;1.70;;;;;;;41.33;21.24;100862.87;106004;1256;65220;-91
2023/07/16 14:53:38;;;;;;;4.70;2.00;;;;;;;40.44;22.37;100856.66;106002;1256;61378;-92
2023/07/16 14:56:26;;;;;;;2.50;1.90;;;;;;;39.87;22.93;100851.44;106087;1256;64909;-91
2023/07/16 15:02:34;;;;;;;6.40;3.80;;;;;;;39.14;23.88;100846.39;106275;1259;61029;-88
2023/07/16 15:05:22;;;;;;;6.10;2.90;;;;;;;38.86;24.51;100845.80;106177;1256;64819;-92
2023/07/16 15:08:10;;;;;;;3.20;1.80;;;;;;;38.54;24.83;100843.00;106307;1258;61385;-90
2023/07/16 15:10:58;;;;;;;3.70;2.20;;;;;;;38.24;24.66;100845.62;106251;1260;63832;-90
2023/07/16 15:13:47;;;;;;;5.30;2.20;;;;;;;38.11;24.60;100841.42;106091;1256;61619;-90
2023/07/16 15:16:35;;;;;;;3.50;1.90;;;;;;;37.85;25.22;100844.98;106037;1256;61338;-91
2023/07/16 15:19:23;;;;;;;2.90;1.80;;;;;;;37.65;25.48;100844.25;106281;1255;67024;-91
2023/07/16 15:22:11;;;;;;;3.20;2.20;;;;;;;37.51;26.28;100845.16;106240;1256;61420;-91
2023/07/16 15:25:00;;;;;;;4.30;2.20;;;;;;;37.36;26.50;100847.38;106530;1256;64958;-89
2023/07/16 15:27:49;;;;;;;5.00;2.70;;;;;;;37.20;25.96;100846.42;106005;1258;61389;-90
2023/07/16 15:30:37;;;;;;;5.20;2.00;;;;;;;37.15;26.34;100845.33;106248;1258;61190;-91
2023/07/16 15:33:29;;;;;;;5.40;1.90;;;;;;;36.97;26.44;100842.79;105973;1261;67057;-90
2023/07/16 15:36:17;;;;;;;3.60;2.20;;;;;;;36.86;26.64;100841.97;106079;1261;61301;-86
2023/07/16 15:39:07;;;;;;;2.70;2.00;;;;;;;36.80;26.34;100837.26;105996;1256;65144;-89
2023/07/16 15:41:58;;;;;;;3.80;1.80;;;;;;;36.57;26.72;100839.92;106164;1255;61446;-91
2023/07/16 15:44:47;;;;;;;2.80;2.40;;;;;;;36.45;26.64;100838.73;106068;1255;61251;-90
2023/07/16 15:47:36;;;;;;;4.30;2.40;;;;;;;36.43;26.42;100835.05;106257;1255;66021;-89
2023/07/16 15:50:26;;;;;;;5.00;2.20;;;;;;;36.49;26.87;100832.19;106215;1256;61140;-87
2023/07/16 15:53:14;;;;;;;2.60;1.70;;;;;;;36.47;27.08;100827.75;106062;1258;64107;-91
2023/07/16 15:56:04;;;;;;;2.30;1.90;;;;;;;36.41;27.42;100827.77;106095;1256;61373;-91
2023/07/16 15:58:52;;;;;;;2.90;2.00;;;;;;;36.36;27.78;100822.63;106026;1256;61335;-89
2023/07/16 16:01:40;;;;;;;2.30;2.10;;;;;;;36.31;27.27;100823.06;106033;1255;66879;-89
2023/07/16 16:04:31;;;;;;;5.00;2.00;;;;;;;36.21;27.23;100822.08;106055;1256;61246;-88
2023/07/16 16:07:20;;;;;;;4.50;2.20;;;;;;;36.18;27.53;100825.97;106147;1255;63975;-91
2023/07/16 16:10:08;;;;;;;6.90;2.40;;;;;;;36.16;27.41;100827.96;105988;1256;61307;-87
2023/07/16 16:12:59;;;;;;;2.20;2.00;;;;;;;36.10;27.50;100829.50;106031;1258;61265;-90
2023/07/16 16:15:50;;;;;;;5.60;2.60;;;;;;;35.94;28.25;100830.46;106194;1256;66079;-89
2023/07/16 16:18:41;;;;;;;5.10;2.00;;;;;;;35.88;28.66;100832.80;105715;1256;370057;-89
2023/07/16 16:21:31;;;;;;;3.40;1.90;;;;;;;35.88;29.47;100830.53;106054;1260;65081;-88
2023/07/16 16:24:19;;;;;;;3.50;2.30;;;;;;;35.86;30.39;100826.52;105976;1256;61171;-87
2023/07/16 16:27:10;;;;;;;2.80;2.30;;;;;;;35.84;30.33;100830.96;105816;1257;61348;-88
2023/07/16 16:29:59;;;;;;;4.30;2.20;;;;;;;35.83;29.37;100835.06;106030;1258;66994;-90
2023/07/16 16:32:52;;;;;;;4.00;2.10;;;;;;;35.80;29.35;100835.55;106021;1262;61186;-90
2023/07/16 16:35:41;;;;;;;2.30;2.00;;;;;;;35.73;29.96;100838.30;106092;1256;65140;-91
2023/07/16 16:38:30;;;;;;;3.50;2.40;;;;;;;35.76;29.21;100837.83;106021;1256;61264;-91
2023/07/16 18:43:06;;;;;;;8.20;4.20;;;;;;;29.58;68.91;100879.60;106212;1255;64848;-90
2023/07/16 18:45:54;;;;;;;9.80;4.10;;;;;;;29.43;70.58;100880.38;105976;1255;61611;-91
2023/07/16 18:48:43;;;;;;;6.50;4.00;;;;;;;29.31;70.94;100884.69;106050;1260;61242;-89
2023/07/16 18:51:32;;;;;;;11.40;4.50;;;;;;;29.21;71.28;100888.19;106206;1255;65932;-89
2023/07/16 18:54:21;;;;;;;7.90;4.30;;;;;;;29.13;71.94;100889.36;106337;1255;61285;-90
2023/07/16 18:57:09;;;;;;;7.30;4.30;;;;;;;29.11;72.26;100891.77;106122;1255;65749;-89
2023/07/16 18:59:58;;;;;;;9.10;4.80;;;;;;;29.14;72.31;100889.70;106163;1258;61290;-89
2023/07/16 19:02:46;;;;;;;7.90;4.70;;;;;;;29.06;72.89;100890.35;106155;1256;61275;-89
2023/07/16 19:05:35;;;;;;;7.10;4.20;;;;;;;28.93;73.63;100891.02;106032;1256;65085;-88
2023/07/16 19:08:35;;;;;;;9.00;4.00;;;;;;;28.81;74.31;100890.39;106490;1260;61275;-90
2023/07/16 19:11:24;;;;;;;6.60;4.00;;;;;;;28.70;75.69;100894.34;106324;1259;64131;-91
2023/07/16 19:14:13;;;;;;;7.10;4.10;;;;;;;28.66;76.71;100895.77;106076;1256;61357;-91
2023/07/16 19:17:12;;;;;;;10.80;4.10;;;;;;;28.57;77.50;100895.96;105983;1260;61183;-90
2023/07/16 19:20:01;;;;;;;13.60;5.20;;;;;;;28.47;78.31;100897.42;106100;1255;66049;-89
2023/07/16 19:22:49;;;;;;;8.00;4.80;;;;;;;28.45;78.15;100902.95;105889;1256;61238;-89
2023/07/16 19:25:37;;;;;;;5.80;4.10;;;;;;;28.30;77.84;100900.64;105998;1256;64062;-89
2023/07/16 19:28:26;;;;;;;6.60;3.90;;;;;;;28.15;78.99;100901.48;106175;1260;61289;-89
2023/07/16 19:31:14;;;;;;;5.70;4.20;;;;;;;28.08;79.23;100898.70;106108;1256;60390;-91
2023/07/16 19:34:03;;;;;;;5.30;3.60;;;;;;;28.02;78.90;100895.77;106060;1261;66192;-89
2023/07/16 19:36:52;;;;;;;8.60;4.20;;;;;;;27.98;79.62;100898.38;106046;1255;70648;-90
2023/07/16 19:39:41;;;;;;;5.30;3.90;;;;;;;27.94;80.03;100895.45;106088;1260;64055;-88
2023/07/16 19:42:30;;;;;;;9.70;4.00;;;;;;;27.92;80.22;100893.91;106361;1257;61856;-89
2023/07/16 19:45:19;;;;;;;7.30;4.00;;;;;;;27.91;79.75;100892.20;106108;1259;61339;-89
2023/07/16 19:48:09;;;;;;;6.50;4.70;;;;;;;27.90;79.39;100892.84;106115;1260;67049;-90
2023/07/16 19:50:58;;;;;;;6.20;4.20;;;;;;;27.84;80.10;100891.59;106038;1256;61319;-91
2023/07/16 19:53:47;;;;;;;5.10;3.90;;;;;;;27.86;80.28;100895.70;106060;1255;64896;-89
2023/07/16 19:56:39;;;;;;;7.70;4.30;;;;;;;27.87;80.17;100898.02;106331;1257;61278;-89
2023/07/16 19:59:27;;;;;;;5.20;4.40;;;;;;;27.78;80.85;100896.17;106061;1261;61182;-90
2023/07/16 20:02:15;;;;;;;5.60;4.20;;;;;;;27.73;81.44;100898.27;106226;1256;67411;-90
2023/07/16 20:05:05;;;;;;;7.70;4.50;;;;;;;27.69;81.60;100901.77;106211;1261;61350;-90
2023/07/16 20:07:54;;;;;;;6.60;4.40;;;;;;;27.64;81.92;100902.42;106267;1255;63910;-90
2023/07/16 20:10:47;;;;;;;;;;;;;;;27.58;82.25;100899.80;106272;1260;61156;-90
2023/07/16 20:13:38;;;;;;;7.00;4.00;;;;;;;27.52;83.04;100900.23;106076;1255;61298;-91
2023/07/16 20:16:30;;;;;;;7.80;3.80;;;;;;;27.52;83.51;100900.06;106120;1260;66023;-91
2023/07/16 20:19:18;;;;;;;7.30;4.40;;;;;;;27.56;83.45;100900.58;106098;1255;61246;-88
2023/07/16 20:22:07;;;;;;;7.50;4.30;;;;;;;27.58;82.83;100897.48;106137;1255;65156;-90
2023/07/16 20:24:56;;;;;;;7.30;4.30;;;;;;;27.54;82.52;100897.75;106036;1255;61342;-92
2023/07/16 20:27:46;;;;;;;7.00;4.30;;;;;;;27.47;82.04;100898.16;106097;1258;61190;-88
2023/07/16 20:30:35;;;;;;;5.90;4.00;;;;;;;27.44;81.21;100898.86;106097;1262;67231;-90
2023/07/16 20:33:24;;;;;;;9.20;4.40;;;;;;;27.38;81.01;100895.89;106089;1255;61268;-91
2023/07/16 20:36:12;;;;;;;7.90;4.40;;;;;;;27.36;80.31;100899.15;106008;1261;62962;-93
2023/07/16 20:39:00;;;;;;;6.10;4.10;;;;;;;27.29;80.21;100899.72;106110;1256;61367;-90
2023/07/16 20:41:50;;;;;;;6.30;4.10;;;;;;;27.24;80.32;100906.71;105963;1255;61295;-92
2023/07/16 20:44:38;;;;;;;8.50;4.40;;;;;;;27.23;80.48;100905.83;106056;1261;66061;-92
2023/07/16 20:47:27;;;;;;;7.10;4.10;;;;;;;27.15;81.59;100906.73;106421;1255;68404;-92
2023/07/16 20:50:16;;;;;;;11.70;4.30;;;;;;;27.14;82.35;100911.04;106036;1255;65066;-91
2023/07/16 20:53:05;;;;;;;8.50;3.90;;;;;;;27.18;82.98;100914.40;106039;1256;61456;-92
2023/07/16 20:55:53;;;;;;;8.00;4.30;;;;;;;27.23;83.27;100914.95;106116;1255;61160;-91
2023/07/16 20:58:42;;;;;;;5.60;3.80;;;;;;;27.28;83.09;100911.25;106022;1255;66060;-91
2023/07/16 21:01:31;;;;;;;5.90;3.80;;;;;;;27.31;82.64;100913.13;106213;1255;61524;-92
2023/07/16 21:04:19;;;;;;;5.70;4.00;;;;;;;27.20;83.45;100920.02;105929;1256;64466;-91
2023/07/16 21:07:08;;;;;;;8.20;4.00;;;;;;;27.12;84.07;100920.96;106175;1260;61108;-88
2023/07/16 21:09:56;;;;;;;7.60;4.20;;;;;;;27.13;83.64;100918.97;106326;1258;59937;-89
2023/07/16 21:12:45;;;;;;;8.10;3.90;;;;;;;27.14;82.78;100919.86;105833;1255;67088;-90
2023/07/16 21:15:34;;;;;;;4.90;4.00;;;;;;;27.15;81.88;100920.84;105969;1255;61279;-91
2023/07/16 21:18:23;;;;;;;5.60;4.30;;;;;;;27.17;81.33;100921.37;106061;1261;63902;-92
2023/07/16 21:21:14;;;;;;;5.50;3.80;;;;;;;27.07;81.95;100920.09;105984;1263;61373;-93
2023/07/16 21:24:02;;;;;;;5.80;4.30;;;;;;;26.97;82.30;100917.09;105982;1255;61341;-91
2023/07/16 21:26:51;;;;;;;6.60;4.30;;;;;;;26.89;82.88;100916.48;106053;1261;66165;-90
2023/07/16 21:29:39;;;;;;;8.50;4.70;;;;;;;26.82;83.36;100914.79;106019;1255;61200;-90
2023/07/16 21:32:28;;;;;;;8.60;4.70;;;;;;;26.68;84.50;100915.08;106010;1256;66460;-91
2023/07/16 21:35:18;;;;;;;5.50;4.10;;;;;;;26.58;85.53;100917.81;105948;1262;61310;-91
2023/07/16 21:38:07;;;;;;;8.30;4.00;;;;;;;26.55;86.45;100916.89;105959;1255;61417;-91
2023/07/16 21:40:55;;;;;;;8.80;4.30;;;;;;;26.58;86.73;100912.37;106126;1261;67126;-90
2023/07/16 21:43:43;;;;;;;6.70;4.10;;;;;;;26.56;86.73;100913.95;106073;1257;61237;-90
2023/07/16 21:46:32;;;;;;;7.80;4.70;;;;;;;26.55;86.27;100911.68;105988;1255;64711;-90